sensor_id;sensor_type;location;lat;lon;timestamp;pressure;altitude;pressure_sealevel;temperature
67966;BMP280;54749;47.850;9.002;2023-12-04T00:01:17;96074.19;;;-7.73
67966;BMP280;54749;47.850;9.002;2023-12-04T00:03:44;96055.34;;;-7.66
67966;BMP280;54749;47.850;9.002;2023-12-04T00:06:12;96052.88;;;-7.63
67966;BMP280;54749;47.850;9.002;2023-12-04T00:08:40;96041.44;;;-7.64
67966;BMP280;54749;47.850;9.002;2023-12-04T00:11:07;96035.66;;;-7.54
67966;BMP280;54749;47.850;9.002;2023-12-04T00:13:34;96045.41;;;-7.45
67966;BMP280;54749;47.850;9.002;2023-12-04T00:16:05;96037.16;;;-7.38
67966;BMP280;54749;47.850;9.002;2023-12-04T00:18:32;96012.63;;;-7.40
67966;BMP280;54749;47.850;9.002;2023-12-04T00:21:00;96030.72;;;-7.51
67966;BMP280;54749;47.850;9.002;2023-12-04T00:23:27;96026.59;;;-7.48
67966;BMP280;54749;47.850;9.002;2023-12-04T00:25:54;96027.38;;;-7.44
67966;BMP280;54749;47.850;9.002;2023-12-04T00:28:22;96024.19;;;-7.49
67966;BMP280;54749;47.850;9.002;2023-12-04T00:30:49;96018.44;;;-7.47
67966;BMP280;54749;47.850;9.002;2023-12-04T00:33:16;96022.53;;;-7.50
67966;BMP280;54749;47.850;9.002;2023-12-04T00:35:44;96006.97;;;-7.45
67966;BMP280;54749;47.850;9.002;2023-12-04T00:38:11;96024.09;;;-7.39
67966;BMP280;54749;47.850;9.002;2023-12-04T00:40:38;96004.44;;;-7.37
67966;BMP280;54749;47.850;9.002;2023-12-04T00:43:05;96009.47;;;-7.51
67966;BMP280;54749;47.850;9.002;2023-12-04T00:45:32;95989.03;;;-7.52
67966;BMP280;54749;47.850;9.002;2023-12-04T00:47:59;95990.72;;;-7.62
67966;BMP280;54749;47.850;9.002;2023-12-04T00:50:27;96002.16;;;-7.61
67966;BMP280;54749;47.850;9.002;2023-12-04T00:52:54;95986.66;;;-7.66
67966;BMP280;54749;47.850;9.002;2023-12-04T00:55:21;95978.56;;;-7.70
67966;BMP280;54749;47.850;9.002;2023-12-04T00:57:48;95976.91;;;-7.70
67966;BMP280;54749;47.850;9.002;2023-12-04T01:00:15;95978.50;;;-7.65
67966;BMP280;54749;47.850;9.002;2023-12-04T01:02:42;95968.69;;;-7.65
67966;BMP280;54749;47.850;9.002;2023-12-04T01:05:10;95985.00;;;-7.59
67966;BMP280;54749;47.850;9.002;2023-12-04T01:07:37;95974.38;;;-7.60
67966;BMP280;54749;47.850;9.002;2023-12-04T01:10:04;95972.69;;;-7.53
67966;BMP280;54749;47.850;9.002;2023-12-04T01:12:32;95966.13;;;-7.50
67966;BMP280;54749;47.850;9.002;2023-12-04T01:15:00;95970.22;;;-7.52
67966;BMP280;54749;47.850;9.002;2023-12-04T01:17:27;95975.13;;;-7.49
67966;BMP280;54749;47.850;9.002;2023-12-04T01:19:54;95966.91;;;-7.45
67966;BMP280;54749;47.850;9.002;2023-12-04T01:22:22;95970.91;;;-7.37
67966;BMP280;54749;47.850;9.002;2023-12-04T01:24:49;95976.53;;;-7.25
67966;BMP280;54749;47.850;9.002;2023-12-04T01:27:16;95968.22;;;-7.12
67966;BMP280;54749;47.850;9.002;2023-12-04T01:29:43;95984.50;;;-7.05
67966;BMP280;54749;47.850;9.002;2023-12-04T01:32:10;95980.38;;;-7.00
67966;BMP280;54749;47.850;9.002;2023-12-04T01:34:38;95954.91;;;-6.91
67966;BMP280;54749;47.850;9.002;2023-12-04T01:37:05;95954.09;;;-6.88
67966;BMP280;54749;47.850;9.002;2023-12-04T01:39:32;95954.91;;;-6.91
67966;BMP280;54749;47.850;9.002;2023-12-04T01:41:59;95951.81;;;-7.07
67966;BMP280;54749;47.850;9.002;2023-12-04T01:44:26;95972.31;;;-7.14
67966;BMP280;54749;47.850;9.002;2023-12-04T01:46:53;95973.13;;;-7.11
67966;BMP280;54749;47.850;9.002;2023-12-04T01:49:21;95937.88;;;-7.04
67966;BMP280;54749;47.850;9.002;2023-12-04T01:51:48;95945.13;;;-6.94
67966;BMP280;54749;47.850;9.002;2023-12-04T01:54:16;95942.59;;;-6.85
67966;BMP280;54749;47.850;9.002;2023-12-04T01:56:43;95952.34;;;-6.81
67966;BMP280;54749;47.850;9.002;2023-12-04T01:59:11;95952.31;;;-6.79
67966;BMP280;54749;47.850;9.002;2023-12-04T02:01:38;95943.41;;;-6.84
67966;BMP280;54749;47.850;9.002;2023-12-04T02:04:07;95938.53;;;-6.89
67966;BMP280;54749;47.850;9.002;2023-12-04T02:06:35;95951.69;;;-6.96
67966;BMP280;54749;47.850;9.002;2023-12-04T02:09:02;95936.13;;;-6.93
67966;BMP280;54749;47.850;9.002;2023-12-04T02:11:29;95931.28;;;-6.99
67966;BMP280;54749;47.850;9.002;2023-12-04T02:13:57;95928.81;;;-7.00
67966;BMP280;54749;47.850;9.002;2023-12-04T02:16:26;95950.88;;;-6.95
67966;BMP280;54749;47.850;9.002;2023-12-04T02:18:54;95945.13;;;-6.95
67966;BMP280;54749;47.850;9.002;2023-12-04T02:21:21;95927.03;;;-6.87
67966;BMP280;54749;47.850;9.002;2023-12-04T02:23:51;95926.16;;;-6.80
67966;BMP280;54749;47.850;9.002;2023-12-04T02:26:24;95931.75;;;-6.69
67966;BMP280;54749;47.850;9.002;2023-12-04T02:28:55;95921.00;;;-6.60
67966;BMP280;54749;47.850;9.002;2023-12-04T02:31:24;95911.94;;;-6.55
67966;BMP280;54749;47.850;9.002;2023-12-04T02:33:55;95901.28;;;-6.55
67966;BMP280;54749;47.850;9.002;2023-12-04T02:36:24;95925.03;;;-6.56
67966;BMP280;54749;47.850;9.002;2023-12-04T02:38:52;95916.84;;;-6.55
67966;BMP280;54749;47.850;9.002;2023-12-04T02:41:19;95923.28;;;-6.48
67966;BMP280;54749;47.850;9.002;2023-12-04T02:43:47;95923.28;;;-6.45
67966;BMP280;54749;47.850;9.002;2023-12-04T02:46:14;95906.06;;;-6.45
67966;BMP280;54749;47.850;9.002;2023-12-04T02:48:41;95901.09;;;-6.41
67966;BMP280;54749;47.850;9.002;2023-12-04T02:51:10;95870.75;;;-6.38
67966;BMP280;54749;47.850;9.002;2023-12-04T02:53:38;95891.22;;;-6.38
67966;BMP280;54749;47.850;9.002;2023-12-04T02:56:05;95900.22;;;-6.38
67966;BMP280;54749;47.850;9.002;2023-12-04T02:58:32;95894.38;;;-6.31
67966;BMP280;54749;47.850;9.002;2023-12-04T03:01:01;95893.56;;;-6.29
67966;BMP280;54749;47.850;9.002;2023-12-04T03:03:28;95892.66;;;-6.24
67966;BMP280;54749;47.850;9.002;2023-12-04T03:05:55;95880.31;;;-6.21
67966;BMP280;54749;47.850;9.002;2023-12-04T03:08:23;95884.28;;;-6.12
67966;BMP280;54749;47.850;9.002;2023-12-04T03:10:50;95869.47;;;-6.08
67966;BMP280;54749;47.850;9.002;2023-12-04T03:13:17;95882.56;;;-6.06
67966;BMP280;54749;47.850;9.002;2023-12-04T03:15:44;95882.53;;;-6.05
67966;BMP280;54749;47.850;9.002;2023-12-04T03:18:12;95871.94;;;-6.08
67966;BMP280;54749;47.850;9.002;2023-12-04T03:20:39;95874.44;;;-6.11
67966;BMP280;54749;47.850;9.002;2023-12-04T03:23:06;95873.69;;;-6.16
67966;BMP280;54749;47.850;9.002;2023-12-04T03:25:33;95872.13;;;-6.20
67966;BMP280;54749;47.850;9.002;2023-12-04T03:28:01;95874.53;;;-6.17
67966;BMP280;54749;47.850;9.002;2023-12-04T03:30:28;95882.72;;;-6.18
67966;BMP280;54749;47.850;9.002;2023-12-04T03:32:55;95854.94;;;-6.23
67966;BMP280;54749;47.850;9.002;2023-12-04T03:35:22;95850.13;;;-6.30
67966;BMP280;54749;47.850;9.002;2023-12-04T03:37:50;95860.97;;;-6.41
67966;BMP280;54749;47.850;9.002;2023-12-04T03:40:17;95867.59;;;-6.46
67966;BMP280;54749;47.850;9.002;2023-12-04T03:42:44;95852.84;;;-6.47
67966;BMP280;54749;47.850;9.002;2023-12-04T03:45:12;95879.84;;;-6.45
67966;BMP280;54749;47.850;9.002;2023-12-04T03:47:39;95846.22;;;-6.41
67966;BMP280;54749;47.850;9.002;2023-12-04T03:50:06;95856.00;;;-6.38
67966;BMP280;54749;47.850;9.002;2023-12-04T03:52:33;95860.09;;;-6.39
67966;BMP280;54749;47.850;9.002;2023-12-04T03:55:00;95868.22;;;-6.35
67966;BMP280;54749;47.850;9.002;2023-12-04T03:57:28;95838.78;;;-6.37
67966;BMP280;54749;47.850;9.002;2023-12-04T03:59:55;95846.09;;;-6.32
67966;BMP280;54749;47.850;9.002;2023-12-04T04:02:22;95865.72;;;-6.29
67966;BMP280;54749;47.850;9.002;2023-12-04T04:04:49;95844.41;;;-6.30
67966;BMP280;54749;47.850;9.002;2023-12-04T04:07:17;95836.31;;;-6.37
67966;BMP280;54749;47.850;9.002;2023-12-04T04:09:44;95837.34;;;-6.49
67966;BMP280;54749;47.850;9.002;2023-12-04T04:12:11;95840.69;;;-6.56
67966;BMP280;54749;47.850;9.002;2023-12-04T04:14:38;95832.56;;;-6.61
67966;BMP280;54749;47.850;9.002;2023-12-04T04:17:06;95817.94;;;-6.67
67966;BMP280;54749;47.850;9.002;2023-12-04T04:19:33;95820.34;;;-6.65
67966;BMP280;54749;47.850;9.002;2023-12-04T04:22:01;95821.94;;;-6.62
67966;BMP280;54749;47.850;9.002;2023-12-04T04:24:28;95828.47;;;-6.59
67966;BMP280;54749;47.850;9.002;2023-12-04T04:26:56;95808.75;;;-6.55
67966;BMP280;54749;47.850;9.002;2023-12-04T04:29:23;95803.72;;;-6.49
67966;BMP280;54749;47.850;9.002;2023-12-04T04:31:51;95807.72;;;-6.42
67966;BMP280;54749;47.850;9.002;2023-12-04T04:34:19;95796.97;;;-6.34
67966;BMP280;54749;47.850;9.002;2023-12-04T04:36:47;95782.06;;;-6.24
67966;BMP280;54749;47.850;9.002;2023-12-04T04:39:14;95794.28;;;-6.21
67966;BMP280;54749;47.850;9.002;2023-12-04T04:41:41;95777.03;;;-6.18
67966;BMP280;54749;47.850;9.002;2023-12-04T04:44:09;95788.56;;;-6.21
67966;BMP280;54749;47.850;9.002;2023-12-04T04:46:36;95802.56;;;-6.28
67966;BMP280;54749;47.850;9.002;2023-12-04T04:49:03;95783.81;;;-6.31
67966;BMP280;54749;47.850;9.002;2023-12-04T04:51:34;95798.53;;;-6.31
67966;BMP280;54749;47.850;9.002;2023-12-04T04:54:02;95787.00;;;-6.27
67966;BMP280;54749;47.850;9.002;2023-12-04T04:56:29;95770.53;;;-6.22
67966;BMP280;54749;47.850;9.002;2023-12-04T04:58:56;95787.63;;;-6.14
67966;BMP280;54749;47.850;9.002;2023-12-04T05:01:24;95776.19;;;-6.17
67966;BMP280;54749;47.850;9.002;2023-12-04T05:03:51;95777.09;;;-6.21
67966;BMP280;54749;47.850;9.002;2023-12-04T05:06:18;95762.28;;;-6.18
67966;BMP280;54749;47.850;9.002;2023-12-04T05:08:45;95769.56;;;-6.12
67966;BMP280;54749;47.850;9.002;2023-12-04T05:11:16;95757.94;;;-6.03
67966;BMP280;54749;47.850;9.002;2023-12-04T05:13:44;95759.34;;;-5.90
67966;BMP280;54749;47.850;9.002;2023-12-04T05:16:11;95751.09;;;-5.88
67966;BMP280;54749;47.850;9.002;2023-12-04T05:18:38;95754.41;;;-5.89
67966;BMP280;54749;47.850;9.002;2023-12-04T05:21:10;95766.59;;;-5.83
67966;BMP280;54749;47.850;9.002;2023-12-04T05:23:38;95747.63;;;-5.76
67966;BMP280;54749;47.850;9.002;2023-12-04T05:26:06;95753.38;;;-5.76
67966;BMP280;54749;47.850;9.002;2023-12-04T05:28:34;95764.84;;;-5.76
67966;BMP280;54749;47.850;9.002;2023-12-04T05:31:01;95776.38;;;-5.80
67966;BMP280;54749;47.850;9.002;2023-12-04T05:33:28;95765.03;;;-5.87
67966;BMP280;54749;47.850;9.002;2023-12-04T05:35:56;95738.78;;;-5.85
67966;BMP280;54749;47.850;9.002;2023-12-04T05:38:23;95761.72;;;-5.86
67966;BMP280;54749;47.850;9.002;2023-12-04T05:40:51;95764.34;;;-5.94
67966;BMP280;54749;47.850;9.002;2023-12-04T05:43:18;95756.16;;;-5.95
67966;BMP280;54749;47.850;9.002;2023-12-04T05:45:46;95754.50;;;-5.94
67966;BMP280;54749;47.850;9.002;2023-12-04T05:48:16;95751.97;;;-5.89
67966;BMP280;54749;47.850;9.002;2023-12-04T05:50:44;95744.59;;;-5.90
67966;BMP280;54749;47.850;9.002;2023-12-04T05:53:11;95737.22;;;-5.92
67966;BMP280;54749;47.850;9.002;2023-12-04T05:55:38;95756.31;;;-6.04
67966;BMP280;54749;47.850;9.002;2023-12-04T05:58:05;95737.50;;;-6.06
67966;BMP280;54749;47.850;9.002;2023-12-04T06:00:32;95742.38;;;-6.03
67966;BMP280;54749;47.850;9.002;2023-12-04T06:02:59;95743.13;;;-6.00
67966;BMP280;54749;47.850;9.002;2023-12-04T06:05:27;95729.91;;;-5.93
67966;BMP280;54749;47.850;9.002;2023-12-04T06:07:54;95727.25;;;-5.83
67966;BMP280;54749;47.850;9.002;2023-12-04T06:10:21;95741.91;;;-5.77
67966;BMP280;54749;47.850;9.002;2023-12-04T06:12:48;95736.00;;;-5.70
67966;BMP280;54749;47.850;9.002;2023-12-04T06:15:16;95727.81;;;-5.69
67966;BMP280;54749;47.850;9.002;2023-12-04T06:17:43;95712.25;;;-5.71
67966;BMP280;54749;47.850;9.002;2023-12-04T06:20:10;95699.09;;;-5.67
67966;BMP280;54749;47.850;9.002;2023-12-04T06:22:38;95700.81;;;-5.72
67966;BMP280;54749;47.850;9.002;2023-12-04T06:25:06;95695.19;;;-5.80
67966;BMP280;54749;47.850;9.002;2023-12-04T06:27:34;95709.13;;;-5.79
67966;BMP280;54749;47.850;9.002;2023-12-04T06:30:02;95688.78;;;-5.85
67966;BMP280;54749;47.850;9.002;2023-12-04T06:32:29;95678.94;;;-5.87
67966;BMP280;54749;47.850;9.002;2023-12-04T06:34:57;95681.50;;;-5.91
67966;BMP280;54749;47.850;9.002;2023-12-04T06:37:24;95693.81;;;-5.93
67966;BMP280;54749;47.850;9.002;2023-12-04T06:39:52;95680.75;;;-5.96
67966;BMP280;54749;47.850;9.002;2023-12-04T06:42:20;95672.53;;;-5.93
67966;BMP280;54749;47.850;9.002;2023-12-04T06:44:48;95675.00;;;-5.93
67966;BMP280;54749;47.850;9.002;2023-12-04T06:47:17;95666.00;;;-5.96
67966;BMP280;54749;47.850;9.002;2023-12-04T06:49:45;95663.59;;;-5.97
67966;BMP280;54749;47.850;9.002;2023-12-04T06:52:12;95651.47;;;-6.06
67966;BMP280;54749;47.850;9.002;2023-12-04T06:54:39;95657.22;;;-6.07
67966;BMP280;54749;47.850;9.002;2023-12-04T06:57:07;95670.34;;;-6.08
67966;BMP280;54749;47.850;9.002;2023-12-04T06:59:35;95653.22;;;-6.12
67966;BMP280;54749;47.850;9.002;2023-12-04T07:02:02;95636.91;;;-6.18
67966;BMP280;54749;47.850;9.002;2023-12-04T07:04:29;95637.81;;;-6.22
67966;BMP280;54749;47.850;9.002;2023-12-04T07:06:56;95642.81;;;-6.28
67966;BMP280;54749;47.850;9.002;2023-12-04T07:09:25;95603.41;;;-6.23
67966;BMP280;54749;47.850;9.002;2023-12-04T07:11:52;95642.72;;;-6.22
67966;BMP280;54749;47.850;9.002;2023-12-04T07:14:20;95654.03;;;-6.13
67966;BMP280;54749;47.850;9.002;2023-12-04T07:16:47;95675.84;;;-5.96
67966;BMP280;54749;47.850;9.002;2023-12-04T07:19:14;95676.31;;;-5.78
67966;BMP280;54749;47.850;9.002;2023-12-04T07:21:43;95678.41;;;-5.62
67966;BMP280;54749;47.850;9.002;2023-12-04T07:24:10;95674.09;;;-5.51
67966;BMP280;54749;47.850;9.002;2023-12-04T07:26:37;95657.53;;;-5.43
67966;BMP280;54749;47.850;9.002;2023-12-04T07:29:05;95672.22;;;-5.39
67966;BMP280;54749;47.850;9.002;2023-12-04T07:31:32;95660.50;;;-5.28
67966;BMP280;54749;47.850;9.002;2023-12-04T07:34:00;95649.69;;;-5.22
67966;BMP280;54749;47.850;9.002;2023-12-04T07:36:29;95657.94;;;-5.24
67966;BMP280;54749;47.850;9.002;2023-12-04T07:38:56;95620.16;;;-5.23
67966;BMP280;54749;47.850;9.002;2023-12-04T07:41:23;95615.19;;;-5.20
67966;BMP280;54749;47.850;9.002;2023-12-04T07:43:50;95617.78;;;-5.27
67966;BMP280;54749;47.850;9.002;2023-12-04T07:46:18;95610.38;;;-5.26
67966;BMP280;54749;47.850;9.002;2023-12-04T07:48:45;95605.56;;;-5.30
67966;BMP280;54749;47.850;9.002;2023-12-04T07:51:13;95606.59;;;-5.40
67966;BMP280;54749;47.850;9.002;2023-12-04T07:53:40;95636.13;;;-5.40
67966;BMP280;54749;47.850;9.002;2023-12-04T07:56:08;95645.09;;;-5.38
67966;BMP280;54749;47.850;9.002;2023-12-04T07:58:35;95623.69;;;-5.34
67966;BMP280;54749;47.850;9.002;2023-12-04T08:01:03;95617.88;;;-5.30
67966;BMP280;54749;47.850;9.002;2023-12-04T08:03:30;95614.69;;;-5.35
67966;BMP280;54749;47.850;9.002;2023-12-04T08:05:58;95595.63;;;-5.27
67966;BMP280;54749;47.850;9.002;2023-12-04T08:08:25;95596.34;;;-5.23
67966;BMP280;54749;47.850;9.002;2023-12-04T08:10:52;95608.53;;;-5.17
67966;BMP280;54749;47.850;9.002;2023-12-04T08:13:20;95611.91;;;-5.21
67966;BMP280;54749;47.850;9.002;2023-12-04T08:15:47;95606.59;;;-5.05
67966;BMP280;54749;47.850;9.002;2023-12-04T08:18:14;95602.19;;;-4.92
67966;BMP280;54749;47.850;9.002;2023-12-04T08:20:41;95606.09;;;-4.84
67966;BMP280;54749;47.850;9.002;2023-12-04T08:23:09;95613.38;;;-4.80
67966;BMP280;54749;47.850;9.002;2023-12-04T08:25:36;95613.56;;;-4.87
67966;BMP280;54749;47.850;9.002;2023-12-04T08:28:06;95598.59;;;-4.80
67966;BMP280;54749;47.850;9.002;2023-12-04T08:30:36;95594.16;;;-4.66
67966;BMP280;54749;47.850;9.002;2023-12-04T08:33:03;95599.72;;;-4.58
67966;BMP280;54749;47.850;9.002;2023-12-04T08:35:31;95595.22;;;-4.76
67966;BMP280;54749;47.850;9.002;2023-12-04T08:37:59;95607.72;;;-4.83
67966;BMP280;54749;47.850;9.002;2023-12-04T08:40:26;95588.59;;;-4.72
67966;BMP280;54749;47.850;9.002;2023-12-04T08:42:53;95583.47;;;-4.65
67966;BMP280;54749;47.850;9.002;2023-12-04T08:45:20;95602.81;;;-4.51
67966;BMP280;54749;47.850;9.002;2023-12-04T08:47:48;95607.88;;;-4.56
67966;BMP280;54749;47.850;9.002;2023-12-04T08:50:16;95600.78;;;-4.37
67966;BMP280;54749;47.850;9.002;2023-12-04T08:52:44;95626.56;;;-4.16
67966;BMP280;54749;47.850;9.002;2023-12-04T08:55:11;95607.88;;;-3.94
67966;BMP280;54749;47.850;9.002;2023-12-04T08:57:39;95612.25;;;-3.75
67966;BMP280;54749;47.850;9.002;2023-12-04T09:00:07;95637.88;;;-3.79
67966;BMP280;54749;47.850;9.002;2023-12-04T09:02:35;95613.97;;;-3.49
67966;BMP280;54749;47.850;9.002;2023-12-04T09:05:14;95615.81;;;-3.29
67966;BMP280;54749;47.850;9.002;2023-12-04T09:07:42;95627.06;;;-3.19
67966;BMP280;54749;47.850;9.002;2023-12-04T09:10:29;95643.66;;;-3.22
67966;BMP280;54749;47.850;9.002;2023-12-04T09:13:16;95654.63;;;-3.04
67966;BMP280;54749;47.850;9.002;2023-12-04T09:15:43;95636.41;;;-3.01
67966;BMP280;54749;47.850;9.002;2023-12-04T09:18:10;95639.47;;;-2.94
67966;BMP280;54749;47.850;9.002;2023-12-04T09:20:37;95631.75;;;-3.10
67966;BMP280;54749;47.850;9.002;2023-12-04T09:23:04;95637.00;;;-3.20
67966;BMP280;54749;47.850;9.002;2023-12-04T09:25:35;95656.78;;;-3.50
67966;BMP280;54749;47.850;9.002;2023-12-04T09:28:03;95643.84;;;-3.58
67966;BMP280;54749;47.850;9.002;2023-12-04T09:30:30;95641.66;;;-3.38
67966;BMP280;54749;47.850;9.002;2023-12-04T09:32:58;95643.69;;;-2.97
67966;BMP280;54749;47.850;9.002;2023-12-04T09:35:25;95640.13;;;-3.42
67966;BMP280;54749;47.850;9.002;2023-12-04T09:37:52;95642.44;;;-3.66
67966;BMP280;54749;47.850;9.002;2023-12-04T09:40:20;95640.22;;;-3.75
67966;BMP280;54749;47.850;9.002;2023-12-04T09:42:48;95634.41;;;-3.72
67966;BMP280;54749;47.850;9.002;2023-12-04T09:45:15;95639.72;;;-3.57
67966;BMP280;54749;47.850;9.002;2023-12-04T09:47:45;95641.69;;;-3.68
67966;BMP280;54749;47.850;9.002;2023-12-04T09:50:14;95650.00;;;-3.72
67966;BMP280;54749;47.850;9.002;2023-12-04T09:52:43;95634.34;;;-3.71
67966;BMP280;54749;47.850;9.002;2023-12-04T09:55:10;95644.66;;;-3.57
67966;BMP280;54749;47.850;9.002;2023-12-04T09:57:38;95643.44;;;-3.43
67966;BMP280;54749;47.850;9.002;2023-12-04T10:00:05;95613.84;;;-3.16
67966;BMP280;54749;47.850;9.002;2023-12-04T10:02:40;95636.06;;;-3.16
67966;BMP280;54749;47.850;9.002;2023-12-04T10:05:08;95641.78;;;-3.16
67966;BMP280;54749;47.850;9.002;2023-12-04T10:07:36;95625.03;;;-2.80
67966;BMP280;54749;47.850;9.002;2023-12-04T10:10:05;95600.81;;;-1.98
67966;BMP280;54749;47.850;9.002;2023-12-04T10:12:33;95606.34;;;-1.68
67966;BMP280;54749;47.850;9.002;2023-12-04T10:15:06;95597.91;;;-1.40
67966;BMP280;54749;47.850;9.002;2023-12-04T10:17:35;95592.09;;;-1.39
67966;BMP280;54749;47.850;9.002;2023-12-04T10:20:22;95590.38;;;-1.16
67966;BMP280;54749;47.850;9.002;2023-12-04T10:23:00;95552.28;;;-0.73
67966;BMP280;54749;47.850;9.002;2023-12-04T10:25:29;95585.47;;;-0.35
67966;BMP280;54749;47.850;9.002;2023-12-04T10:28:12;95543.91;;;-0.31
67966;BMP280;54749;47.850;9.002;2023-12-04T10:30:39;95575.63;;;-0.17
67966;BMP280;54749;47.850;9.002;2023-12-04T10:33:07;95559.66;;;-0.32
67966;BMP280;54749;47.850;9.002;2023-12-04T10:35:36;95559.53;;;-0.09
67966;BMP280;54749;47.850;9.002;2023-12-04T10:38:07;95553.75;;;0.28
67966;BMP280;54749;47.850;9.002;2023-12-04T10:40:36;95547.50;;;0.37
67966;BMP280;54749;47.850;9.002;2023-12-04T10:45:39;95561.13;;;0.83
67966;BMP280;54749;47.850;9.002;2023-12-04T10:48:08;95555.47;;;1.32
67966;BMP280;54749;47.850;9.002;2023-12-04T10:50:36;95556.56;;;1.93
67966;BMP280;54749;47.850;9.002;2023-12-04T10:53:08;95551.94;;;2.80
67966;BMP280;54749;47.850;9.002;2023-12-04T10:55:36;95537.72;;;3.26
67966;BMP280;54749;47.850;9.002;2023-12-04T10:58:09;95517.66;;;3.71
67966;BMP280;54749;47.850;9.002;2023-12-04T11:00:43;95522.72;;;4.92
67966;BMP280;54749;47.850;9.002;2023-12-04T11:03:25;95490.00;;;6.09
67966;BMP280;54749;47.850;9.002;2023-12-04T11:05:59;95491.63;;;7.04
67966;BMP280;54749;47.850;9.002;2023-12-04T11:08:33;95479.34;;;7.69
67966;BMP280;54749;47.850;9.002;2023-12-04T11:11:04;95482.00;;;8.33
67966;BMP280;54749;47.850;9.002;2023-12-04T11:13:37;95472.69;;;8.01
67966;BMP280;54749;47.850;9.002;2023-12-04T11:16:26;95476.44;;;7.29
67966;BMP280;54749;47.850;9.002;2023-12-04T11:18:57;95481.00;;;6.66
67966;BMP280;54749;47.850;9.002;2023-12-04T11:21:32;95442.50;;;6.78
67966;BMP280;54749;47.850;9.002;2023-12-04T11:24:00;95453.19;;;6.92
67966;BMP280;54749;47.850;9.002;2023-12-04T11:26:28;95422.59;;;7.10
67966;BMP280;54749;47.850;9.002;2023-12-04T11:28:55;95467.81;;;6.63
67966;BMP280;54749;47.850;9.002;2023-12-04T11:31:23;95470.72;;;5.85
67966;BMP280;54749;47.850;9.002;2023-12-04T11:33:50;95498.94;;;5.37
67966;BMP280;54749;47.850;9.002;2023-12-04T11:36:17;95475.13;;;5.06
67966;BMP280;54749;47.850;9.002;2023-12-04T11:38:46;95500.53;;;4.61
67966;BMP280;54749;47.850;9.002;2023-12-04T11:41:23;95487.22;;;4.33
67966;BMP280;54749;47.850;9.002;2023-12-04T11:43:56;95509.94;;;4.30
67966;BMP280;54749;47.850;9.002;2023-12-04T11:46:25;95486.00;;;4.40
67966;BMP280;54749;47.850;9.002;2023-12-04T11:51:45;95500.19;;;4.92
67966;BMP280;54749;47.850;9.002;2023-12-04T11:54:16;95494.03;;;5.24
67966;BMP280;54749;47.850;9.002;2023-12-04T11:59:38;95474.72;;;5.76
67966;BMP280;54749;47.850;9.002;2023-12-04T12:02:10;95488.03;;;5.76
67966;BMP280;54749;47.850;9.002;2023-12-04T12:04:38;95478.34;;;5.84
67966;BMP280;54749;47.850;9.002;2023-12-04T12:07:05;95496.16;;;5.67
67966;BMP280;54749;47.850;9.002;2023-12-04T12:09:33;95495.91;;;5.58
67966;BMP280;54749;47.850;9.002;2023-12-04T12:12:04;95485.25;;;5.42
67966;BMP280;54749;47.850;9.002;2023-12-04T12:14:31;95469.84;;;4.85
67966;BMP280;54749;47.850;9.002;2023-12-04T12:17:00;95469.56;;;4.09
67966;BMP280;54749;47.850;9.002;2023-12-04T12:19:28;95472.25;;;3.92
67966;BMP280;54749;47.850;9.002;2023-12-04T12:21:56;95474.19;;;3.87
67966;BMP280;54749;47.850;9.002;2023-12-04T12:24:24;95456.72;;;4.01
67966;BMP280;54749;47.850;9.002;2023-12-04T12:26:54;95443.69;;;4.10
67966;BMP280;54749;47.850;9.002;2023-12-04T12:29:21;95450.09;;;4.00
67966;BMP280;54749;47.850;9.002;2023-12-04T12:31:49;95443.22;;;4.17
67966;BMP280;54749;47.850;9.002;2023-12-04T12:34:17;95442.59;;;4.14
67966;BMP280;54749;47.850;9.002;2023-12-04T12:36:45;95448.88;;;4.07
67966;BMP280;54749;47.850;9.002;2023-12-04T12:39:13;95447.94;;;3.94
67966;BMP280;54749;47.850;9.002;2023-12-04T12:41:47;95451.16;;;3.83
67966;BMP280;54749;47.850;9.002;2023-12-04T12:44:15;95457.41;;;3.76
67966;BMP280;54749;47.850;9.002;2023-12-04T12:46:47;95445.34;;;3.68
67966;BMP280;54749;47.850;9.002;2023-12-04T12:49:18;95446.50;;;3.49
67966;BMP280;54749;47.850;9.002;2023-12-04T12:52:02;95454.13;;;3.33
67966;BMP280;54749;47.850;9.002;2023-12-04T12:54:32;95450.16;;;3.29
67966;BMP280;54749;47.850;9.002;2023-12-04T12:57:01;95453.94;;;3.36
67966;BMP280;54749;47.850;9.002;2023-12-04T12:59:28;95458.25;;;3.48
67966;BMP280;54749;47.850;9.002;2023-12-04T13:01:56;95439.38;;;3.57
67966;BMP280;54749;47.850;9.002;2023-12-04T13:04:24;95445.22;;;3.43
67966;BMP280;54749;47.850;9.002;2023-12-04T13:06:51;95431.91;;;3.29
67966;BMP280;54749;47.850;9.002;2023-12-04T13:09:19;95429.09;;;3.06
67966;BMP280;54749;47.850;9.002;2023-12-04T13:11:46;95425.28;;;2.85
67966;BMP280;54749;47.850;9.002;2023-12-04T13:14:14;95422.16;;;2.67
67966;BMP280;54749;47.850;9.002;2023-12-04T13:16:41;95427.06;;;2.53
67966;BMP280;54749;47.850;9.002;2023-12-04T13:19:08;95410.84;;;2.46
67966;BMP280;54749;47.850;9.002;2023-12-04T13:21:35;95412.78;;;2.42
67966;BMP280;54749;47.850;9.002;2023-12-04T13:24:03;95402.22;;;2.37
67966;BMP280;54749;47.850;9.002;2023-12-04T13:26:34;95415.97;;;2.28
67966;BMP280;54749;47.850;9.002;2023-12-04T13:29:01;95417.28;;;2.20
67966;BMP280;54749;47.850;9.002;2023-12-04T13:31:28;95422.72;;;2.11
67966;BMP280;54749;47.850;9.002;2023-12-04T13:33:56;95410.97;;;1.98
67966;BMP280;54749;47.850;9.002;2023-12-04T13:36:23;95408.88;;;1.91
67966;BMP280;54749;47.850;9.002;2023-12-04T13:38:51;95406.38;;;1.76
67966;BMP280;54749;47.850;9.002;2023-12-04T13:41:18;95404.91;;;1.72
67966;BMP280;54749;47.850;9.002;2023-12-04T13:44:04;95399.84;;;1.74
67966;BMP280;54749;47.850;9.002;2023-12-04T13:46:31;95390.44;;;1.78
67966;BMP280;54749;47.850;9.002;2023-12-04T13:48:59;95387.81;;;1.81
67966;BMP280;54749;47.850;9.002;2023-12-04T13:51:26;95386.63;;;1.88
67966;BMP280;54749;47.850;9.002;2023-12-04T13:53:54;95374.00;;;1.91
67966;BMP280;54749;47.850;9.002;2023-12-04T13:56:28;95370.44;;;1.95
67966;BMP280;54749;47.850;9.002;2023-12-04T13:59:12;95372.41;;;1.90
67966;BMP280;54749;47.850;9.002;2023-12-04T14:01:47;95375.28;;;1.83
67966;BMP280;54749;47.850;9.002;2023-12-04T14:04:17;95371.09;;;1.68
67966;BMP280;54749;47.850;9.002;2023-12-04T14:06:45;95376.31;;;1.64
67966;BMP280;54749;47.850;9.002;2023-12-04T14:09:13;95368.41;;;1.56
67966;BMP280;54749;47.850;9.002;2023-12-04T14:11:44;95365.13;;;1.56
67966;BMP280;54749;47.850;9.002;2023-12-04T14:14:12;95381.91;;;1.36
67966;BMP280;54749;47.850;9.002;2023-12-04T14:16:42;95372.19;;;1.31
67966;BMP280;54749;47.850;9.002;2023-12-04T14:19:10;95367.44;;;1.27
67966;BMP280;54749;47.850;9.002;2023-12-04T14:21:38;95363.50;;;1.23
67966;BMP280;54749;47.850;9.002;2023-12-04T14:24:05;95373.69;;;1.19
67966;BMP280;54749;47.850;9.002;2023-12-04T14:26:32;95356.88;;;1.07